sensor_id;sensor_type;location;lat;lon;timestamp;P1;durP1;ratioP1;P2;durP2;ratioP2
2850;SDS011;1433;49.976;8.342;2023-06-10T00:02:17;13.50;;;7.00;;
2850;SDS011;1433;49.976;8.342;2023-06-10T00:04:43;10.03;;;6.70;;
2850;SDS011;1433;49.976;8.342;2023-06-10T00:07:09;7.20;;;6.50;;
2850;SDS011;1433;49.976;8.342;2023-06-10T00:09:36;8.37;;;7.57;;
2850;SDS011;1433;49.976;8.342;2023-06-10T00:12:07;7.13;;;5.93;;
2850;SDS011;1433;49.976;8.342;2023-06-10T00:14:32;8.50;;;7.00;;
2850;SDS011;1433;49.976;8.342;2023-06-10T00:16:59;8.03;;;7.23;;
2850;SDS011;1433;49.976;8.342;2023-06-10T00:19:25;8.20;;;7.50;;
2850;SDS011;1433;49.976;8.342;2023-06-10T00:21:53;8.10;;;6.50;;
2850;SDS011;1433;49.976;8.342;2023-06-10T00:24:20;7.17;;;6.57;;
2850;SDS011;1433;49.976;8.342;2023-06-10T00:26:46;7.87;;;7.17;;
2850;SDS011;1433;49.976;8.342;2023-06-10T00:29:12;6.83;;;6.23;;
2850;SDS011;1433;49.976;8.342;2023-06-10T00:31:41;10.70;;;7.47;;
2850;SDS011;1433;49.976;8.342;2023-06-10T00:34:11;7.90;;;7.10;;
2850;SDS011;1433;49.976;8.342;2023-06-10T00:36:37;7.37;;;6.70;;
2850;SDS011;1433;49.976;8.342;2023-06-10T00:39:04;11.20;;;8.20;;
2850;SDS011;1433;49.976;8.342;2023-06-10T00:41:46;7.60;;;6.30;;
2850;SDS011;1433;49.976;8.342;2023-06-10T00:44:12;7.50;;;6.80;;
2850;SDS011;1433;49.976;8.342;2023-06-10T00:46:38;8.67;;;7.83;;
2850;SDS011;1433;49.976;8.342;2023-06-10T00:49:04;7.50;;;6.50;;
2850;SDS011;1433;49.976;8.342;2023-06-10T00:51:31;7.20;;;6.60;;
2850;SDS011;1433;49.976;8.342;2023-06-10T00:53:58;9.00;;;8.10;;
2850;SDS011;1433;49.976;8.342;2023-06-10T00:56:25;7.40;;;6.50;;
2850;SDS011;1433;49.976;8.342;2023-06-10T00:58:51;7.47;;;6.70;;
2850;SDS011;1433;49.976;8.342;2023-06-10T01:01:17;6.33;;;5.73;;
2850;SDS011;1433;49.976;8.342;2023-06-10T01:03:45;7.30;;;6.70;;
2850;SDS011;1433;49.976;8.342;2023-06-10T01:06:15;8.00;;;6.60;;
2850;SDS011;1433;49.976;8.342;2023-06-10T01:09:18;7.13;;;6.50;;
2850;SDS011;1433;49.976;8.342;2023-06-10T01:11:47;6.70;;;6.10;;
2850;SDS011;1433;49.976;8.342;2023-06-10T01:14:23;6.57;;;5.97;;
2850;SDS011;1433;49.976;8.342;2023-06-10T01:16:51;8.00;;;7.20;;
2850;SDS011;1433;49.976;8.342;2023-06-10T01:19:18;7.57;;;6.77;;
2850;SDS011;1433;49.976;8.342;2023-06-10T01:21:44;7.80;;;7.10;;
2850;SDS011;1433;49.976;8.342;2023-06-10T01:24:12;7.17;;;6.47;;
2850;SDS011;1433;49.976;8.342;2023-06-10T01:26:39;6.50;;;5.90;;
2850;SDS011;1433;49.976;8.342;2023-06-10T01:29:11;7.43;;;6.83;;
2850;SDS011;1433;49.976;8.342;2023-06-10T01:31:41;7.17;;;6.50;;
2850;SDS011;1433;49.976;8.342;2023-06-10T01:34:13;7.70;;;6.50;;
2850;SDS011;1433;49.976;8.342;2023-06-10T01:36:42;8.40;;;7.50;;
2850;SDS011;1433;49.976;8.342;2023-06-10T01:39:14;7.13;;;6.43;;
2850;SDS011;1433;49.976;8.342;2023-06-10T01:41:42;8.93;;;6.00;;
2850;SDS011;1433;49.976;8.342;2023-06-10T01:44:09;7.93;;;7.23;;
2850;SDS011;1433;49.976;8.342;2023-06-10T01:46:38;6.80;;;6.10;;
2850;SDS011;1433;49.976;8.342;2023-06-10T01:49:04;7.50;;;6.80;;
2850;SDS011;1433;49.976;8.342;2023-06-10T01:51:30;8.27;;;6.33;;
2850;SDS011;1433;49.976;8.342;2023-06-10T01:53:57;6.80;;;6.20;;
2850;SDS011;1433;49.976;8.342;2023-06-10T01:56:23;9.00;;;7.80;;
2850;SDS011;1433;49.976;8.342;2023-06-10T01:58:49;10.17;;;7.90;;
2850;SDS011;1433;49.976;8.342;2023-06-10T02:01:16;8.50;;;7.70;;
2850;SDS011;1433;49.976;8.342;2023-06-10T02:03:42;7.20;;;6.50;;
2850;SDS011;1433;49.976;8.342;2023-06-10T02:06:08;8.03;;;7.23;;
2850;SDS011;1433;49.976;8.342;2023-06-10T02:08:34;9.83;;;8.00;;
2850;SDS011;1433;49.976;8.342;2023-06-10T02:11:01;10.20;;;7.30;;
2850;SDS011;1433;49.976;8.342;2023-06-10T02:13:29;7.30;;;5.87;;
2850;SDS011;1433;49.976;8.342;2023-06-10T02:15:55;12.00;;;6.40;;
2850;SDS011;1433;49.976;8.342;2023-06-10T02:18:21;8.63;;;7.00;;
2850;SDS011;1433;49.976;8.342;2023-06-10T02:20:47;6.70;;;6.17;;
2850;SDS011;1433;49.976;8.342;2023-06-10T02:23:14;7.33;;;6.63;;
2850;SDS011;1433;49.976;8.342;2023-06-10T02:25:40;10.13;;;8.33;;
2850;SDS011;1433;49.976;8.342;2023-06-10T02:28:07;7.07;;;6.47;;
2850;SDS011;1433;49.976;8.342;2023-06-10T02:30:33;9.67;;;7.93;;
2850;SDS011;1433;49.976;8.342;2023-06-10T02:32:59;6.77;;;5.93;;
2850;SDS011;1433;49.976;8.342;2023-06-10T02:35:27;6.20;;;5.57;;
2850;SDS011;1433;49.976;8.342;2023-06-10T02:37:54;8.27;;;7.43;;
2850;SDS011;1433;49.976;8.342;2023-06-10T02:40:21;7.63;;;6.90;;
2850;SDS011;1433;49.976;8.342;2023-06-10T02:42:48;8.00;;;7.20;;
2850;SDS011;1433;49.976;8.342;2023-06-10T02:45:15;7.93;;;7.33;;
2850;SDS011;1433;49.976;8.342;2023-06-10T02:47:42;7.33;;;6.63;;
2850;SDS011;1433;49.976;8.342;2023-06-10T02:50:09;8.20;;;7.50;;
2850;SDS011;1433;49.976;8.342;2023-06-10T02:52:37;8.20;;;6.43;;
2850;SDS011;1433;49.976;8.342;2023-06-10T02:55:04;6.57;;;6.07;;
2850;SDS011;1433;49.976;8.342;2023-06-10T02:57:31;7.77;;;7.07;;
2850;SDS011;1433;49.976;8.342;2023-06-10T02:59:59;6.67;;;5.97;;
2850;SDS011;1433;49.976;8.342;2023-06-10T03:02:26;8.77;;;8.07;;
2850;SDS011;1433;49.976;8.342;2023-06-10T03:04:55;7.00;;;6.30;;
2850;SDS011;1433;49.976;8.342;2023-06-10T03:07:21;8.33;;;6.20;;
2850;SDS011;1433;49.976;8.342;2023-06-10T03:09:49;7.73;;;7.00;;
2850;SDS011;1433;49.976;8.342;2023-06-10T03:12:16;9.27;;;7.80;;
2850;SDS011;1433;49.976;8.342;2023-06-10T03:14:44;6.90;;;6.30;;
2850;SDS011;1433;49.976;8.342;2023-06-10T03:17:11;10.33;;;7.10;;
2850;SDS011;1433;49.976;8.342;2023-06-10T03:19:39;7.40;;;6.70;;
2850;SDS011;1433;49.976;8.342;2023-06-10T03:24:40;9.57;;;6.27;;
2850;SDS011;1433;49.976;8.342;2023-06-10T03:27:07;8.67;;;6.33;;
2850;SDS011;1433;49.976;8.342;2023-06-10T03:29:39;5.90;;;5.40;;
2850;SDS011;1433;49.976;8.342;2023-06-10T03:32:06;7.80;;;6.23;;
2850;SDS011;1433;49.976;8.342;2023-06-10T03:34:35;7.00;;;6.37;;
2850;SDS011;1433;49.976;8.342;2023-06-10T03:37:01;6.00;;;5.40;;
2850;SDS011;1433;49.976;8.342;2023-06-10T03:39:29;6.53;;;6.00;;
2850;SDS011;1433;49.976;8.342;2023-06-10T03:41:56;10.83;;;5.47;;
2850;SDS011;1433;49.976;8.342;2023-06-10T03:44:26;7.03;;;6.23;;
2850;SDS011;1433;49.976;8.342;2023-06-10T03:46:54;6.07;;;5.50;;
2850;SDS011;1433;49.976;8.342;2023-06-10T03:49:21;7.53;;;5.60;;
2850;SDS011;1433;49.976;8.342;2023-06-10T03:51:49;6.33;;;5.70;;
2850;SDS011;1433;49.976;8.342;2023-06-10T03:54:16;6.60;;;6.00;;
2850;SDS011;1433;49.976;8.342;2023-06-10T03:56:42;6.37;;;5.80;;
2850;SDS011;1433;49.976;8.342;2023-06-10T03:59:08;6.87;;;5.50;;
2850;SDS011;1433;49.976;8.342;2023-06-10T04:01:34;7.30;;;6.30;;
2850;SDS011;1433;49.976;8.342;2023-06-10T04:04:03;6.10;;;5.40;;
2850;SDS011;1433;49.976;8.342;2023-06-10T04:06:31;6.43;;;5.83;;
2850;SDS011;1433;49.976;8.342;2023-06-10T04:08:57;9.80;;;5.73;;
2850;SDS011;1433;49.976;8.342;2023-06-10T04:11:26;8.23;;;7.00;;
2850;SDS011;1433;49.976;8.342;2023-06-10T04:13:52;6.50;;;6.00;;
2850;SDS011;1433;49.976;8.342;2023-06-10T04:16:19;7.53;;;6.00;;
2850;SDS011;1433;49.976;8.342;2023-06-10T04:18:48;6.27;;;5.70;;
2850;SDS011;1433;49.976;8.342;2023-06-10T04:21:14;6.07;;;5.57;;
2850;SDS011;1433;49.976;8.342;2023-06-10T04:23:41;6.13;;;4.87;;
2850;SDS011;1433;49.976;8.342;2023-06-10T04:26:08;5.63;;;4.60;;
2850;SDS011;1433;49.976;8.342;2023-06-10T04:28:34;6.53;;;5.90;;
2850;SDS011;1433;49.976;8.342;2023-06-10T04:31:02;6.50;;;5.90;;
2850;SDS011;1433;49.976;8.342;2023-06-10T04:33:30;5.77;;;5.27;;
2850;SDS011;1433;49.976;8.342;2023-06-10T04:35:57;6.90;;;6.30;;
2850;SDS011;1433;49.976;8.342;2023-06-10T04:38:24;6.70;;;5.63;;
2850;SDS011;1433;49.976;8.342;2023-06-10T04:40:50;5.87;;;5.20;;
2850;SDS011;1433;49.976;8.342;2023-06-10T04:43:18;10.60;;;6.27;;
2850;SDS011;1433;49.976;8.342;2023-06-10T04:45:45;5.90;;;5.30;;
2850;SDS011;1433;49.976;8.342;2023-06-10T04:48:12;6.47;;;5.53;;
2850;SDS011;1433;49.976;8.342;2023-06-10T04:50:38;7.93;;;5.83;;
2850;SDS011;1433;49.976;8.342;2023-06-10T04:53:04;11.27;;;8.23;;
2850;SDS011;1433;49.976;8.342;2023-06-10T04:55:32;6.47;;;5.20;;
2850;SDS011;1433;49.976;8.342;2023-06-10T04:58:00;6.83;;;4.40;;
2850;SDS011;1433;49.976;8.342;2023-06-10T05:00:26;6.10;;;5.50;;
2850;SDS011;1433;49.976;8.342;2023-06-10T05:02:52;6.23;;;5.47;;
2850;SDS011;1433;49.976;8.342;2023-06-10T05:05:18;5.07;;;4.60;;
2850;SDS011;1433;49.976;8.342;2023-06-10T05:07:45;5.23;;;4.73;;
2850;SDS011;1433;49.976;8.342;2023-06-10T05:10:11;6.03;;;5.47;;
2850;SDS011;1433;49.976;8.342;2023-06-10T05:12:40;6.40;;;5.03;;
2850;SDS011;1433;49.976;8.342;2023-06-10T05:15:07;7.30;;;5.50;;
2850;SDS011;1433;49.976;8.342;2023-06-10T05:17:33;6.00;;;5.07;;
2850;SDS011;1433;49.976;8.342;2023-06-10T05:20:01;8.60;;;5.20;;
2850;SDS011;1433;49.976;8.342;2023-06-10T05:22:28;5.63;;;5.03;;
2850;SDS011;1433;49.976;8.342;2023-06-10T05:24:54;6.63;;;5.13;;
2850;SDS011;1433;49.976;8.342;2023-06-10T05:27:21;6.50;;;5.17;;
2850;SDS011;1433;49.976;8.342;2023-06-10T05:29:47;9.43;;;4.97;;
2850;SDS011;1433;49.976;8.342;2023-06-10T05:32:14;9.17;;;5.27;;
2850;SDS011;1433;49.976;8.342;2023-06-10T05:34:40;5.63;;;5.03;;
2850;SDS011;1433;49.976;8.342;2023-06-10T05:37:06;4.60;;;4.20;;
2850;SDS011;1433;49.976;8.342;2023-06-10T05:39:32;6.70;;;5.20;;
2850;SDS011;1433;49.976;8.342;2023-06-10T05:41:59;6.57;;;4.30;;
2850;SDS011;1433;49.976;8.342;2023-06-10T05:44:27;6.83;;;5.20;;
2850;SDS011;1433;49.976;8.342;2023-06-10T05:46:53;6.47;;;5.80;;
2850;SDS011;1433;49.976;8.342;2023-06-10T05:49:19;5.50;;;5.00;;
2850;SDS011;1433;49.976;8.342;2023-06-10T05:51:45;6.27;;;4.73;;
2850;SDS011;1433;49.976;8.342;2023-06-10T05:54:11;5.60;;;5.00;;
2850;SDS011;1433;49.976;8.342;2023-06-10T05:56:38;4.93;;;4.53;;
2850;SDS011;1433;49.976;8.342;2023-06-10T05:59:04;5.20;;;4.70;;
2850;SDS011;1433;49.976;8.342;2023-06-10T06:01:30;6.07;;;5.20;;
2850;SDS011;1433;49.976;8.342;2023-06-10T06:03:56;6.60;;;4.83;;
2850;SDS011;1433;49.976;8.342;2023-06-10T06:06:23;4.30;;;3.93;;
2850;SDS011;1433;49.976;8.342;2023-06-10T06:08:49;5.73;;;5.10;;
2850;SDS011;1433;49.976;8.342;2023-06-10T06:11:15;5.47;;;4.83;;
2850;SDS011;1433;49.976;8.342;2023-06-10T06:13:42;6.23;;;5.63;;
2850;SDS011;1433;49.976;8.342;2023-06-10T06:16:08;11.10;;;5.27;;
2850;SDS011;1433;49.976;8.342;2023-06-10T06:18:34;5.27;;;4.73;;
2850;SDS011;1433;49.976;8.342;2023-06-10T06:21:00;5.70;;;5.07;;
2850;SDS011;1433;49.976;8.342;2023-06-10T06:23:26;5.77;;;5.17;;
2850;SDS011;1433;49.976;8.342;2023-06-10T06:25:52;4.87;;;4.30;;
2850;SDS011;1433;49.976;8.342;2023-06-10T06:28:18;5.87;;;5.37;;
2850;SDS011;1433;49.976;8.342;2023-06-10T06:30:46;6.37;;;4.67;;
2850;SDS011;1433;49.976;8.342;2023-06-10T06:33:13;7.23;;;5.17;;
2850;SDS011;1433;49.976;8.342;2023-06-10T06:35:39;6.80;;;4.53;;
2850;SDS011;1433;49.976;8.342;2023-06-10T06:38:05;7.30;;;4.60;;
2850;SDS011;1433;49.976;8.342;2023-06-10T06:40:34;9.73;;;5.40;;
2850;SDS011;1433;49.976;8.342;2023-06-10T06:43:00;7.27;;;5.47;;
2850;SDS011;1433;49.976;8.342;2023-06-10T06:45:41;5.67;;;4.93;;
2850;SDS011;1433;49.976;8.342;2023-06-10T06:48:07;5.60;;;4.90;;
2850;SDS011;1433;49.976;8.342;2023-06-10T06:50:33;5.20;;;4.70;;
2850;SDS011;1433;49.976;8.342;2023-06-10T06:52:59;7.33;;;5.33;;
2850;SDS011;1433;49.976;8.342;2023-06-10T06:55:25;5.87;;;4.67;;
2850;SDS011;1433;49.976;8.342;2023-06-10T06:57:51;4.90;;;4.50;;
2850;SDS011;1433;49.976;8.342;2023-06-10T07:00:18;5.53;;;4.30;;
2850;SDS011;1433;49.976;8.342;2023-06-10T07:02:44;4.57;;;4.27;;
2850;SDS011;1433;49.976;8.342;2023-06-10T07:05:10;8.27;;;7.57;;
2850;SDS011;1433;49.976;8.342;2023-06-10T07:07:37;6.93;;;4.90;;
2850;SDS011;1433;49.976;8.342;2023-06-10T07:10:03;5.20;;;4.70;;
2850;SDS011;1433;49.976;8.342;2023-06-10T07:12:30;5.03;;;4.63;;
2850;SDS011;1433;49.976;8.342;2023-06-10T07:14:57;6.17;;;5.67;;
2850;SDS011;1433;49.976;8.342;2023-06-10T07:17:23;6.13;;;5.33;;
2850;SDS011;1433;49.976;8.342;2023-06-10T07:19:49;5.53;;;5.00;;
2850;SDS011;1433;49.976;8.342;2023-06-10T07:22:17;5.60;;;5.10;;
2850;SDS011;1433;49.976;8.342;2023-06-10T07:24:43;5.60;;;5.10;;
2850;SDS011;1433;49.976;8.342;2023-06-10T07:27:09;4.67;;;4.27;;
2850;SDS011;1433;49.976;8.342;2023-06-10T07:29:36;6.17;;;5.57;;
2850;SDS011;1433;49.976;8.342;2023-06-10T07:32:05;6.83;;;4.97;;
2850;SDS011;1433;49.976;8.342;2023-06-10T07:34:31;5.90;;;4.90;;
2850;SDS011;1433;49.976;8.342;2023-06-10T07:36:57;6.13;;;5.30;;
2850;SDS011;1433;49.976;8.342;2023-06-10T07:39:23;15.30;;;5.40;;
2850;SDS011;1433;49.976;8.342;2023-06-10T07:41:50;5.77;;;5.23;;
2850;SDS011;1433;49.976;8.342;2023-06-10T07:44:18;8.40;;;5.90;;
2850;SDS011;1433;49.976;8.342;2023-06-10T07:46:44;6.00;;;5.60;;
2850;SDS011;1433;49.976;8.342;2023-06-10T07:49:10;6.30;;;5.53;;
2850;SDS011;1433;49.976;8.342;2023-06-10T07:51:37;4.80;;;4.30;;
2850;SDS011;1433;49.976;8.342;2023-06-10T07:54:03;5.43;;;4.93;;
2850;SDS011;1433;49.976;8.342;2023-06-10T07:56:29;6.97;;;5.37;;
2850;SDS011;1433;49.976;8.342;2023-06-10T07:58:55;5.03;;;4.53;;
2850;SDS011;1433;49.976;8.342;2023-06-10T08:01:22;6.17;;;5.57;;
2850;SDS011;1433;49.976;8.342;2023-06-10T08:03:49;8.57;;;5.53;;
2850;SDS011;1433;49.976;8.342;2023-06-10T08:06:15;5.73;;;5.30;;
2850;SDS011;1433;49.976;8.342;2023-06-10T08:08:43;5.17;;;4.73;;
2850;SDS011;1433;49.976;8.342;2023-06-10T08:11:12;5.83;;;5.20;;
2850;SDS011;1433;49.976;8.342;2023-06-10T08:13:39;5.43;;;5.03;;
2850;SDS011;1433;49.976;8.342;2023-06-10T08:16:05;5.50;;;5.00;;
2850;SDS011;1433;49.976;8.342;2023-06-10T08:18:31;5.60;;;5.10;;
2850;SDS011;1433;49.976;8.342;2023-06-10T08:20:58;6.00;;;5.50;;
2850;SDS011;1433;49.976;8.342;2023-06-10T08:23:24;5.90;;;5.40;;
2850;SDS011;1433;49.976;8.342;2023-06-10T08:25:51;5.33;;;4.83;;
2850;SDS011;1433;49.976;8.342;2023-06-10T08:28:17;5.97;;;5.47;;
2850;SDS011;1433;49.976;8.342;2023-06-10T08:30:44;5.50;;;5.07;;
2850;SDS011;1433;49.976;8.342;2023-06-10T08:33:11;7.30;;;6.30;;
2850;SDS011;1433;49.976;8.342;2023-06-10T08:35:37;9.30;;;7.07;;
2850;SDS011;1433;49.976;8.342;2023-06-10T08:38:03;7.77;;;6.93;;
2850;SDS011;1433;49.976;8.342;2023-06-10T08:40:29;5.77;;;5.00;;
2850;SDS011;1433;49.976;8.342;2023-06-10T08:45:30;6.50;;;5.40;;
2850;SDS011;1433;49.976;8.342;2023-06-10T08:47:58;5.27;;;4.63;;
2850;SDS011;1433;49.976;8.342;2023-06-10T08:50:27;8.40;;;6.80;;
2850;SDS011;1433;49.976;8.342;2023-06-10T08:52:57;6.20;;;5.20;;
2850;SDS011;1433;49.976;8.342;2023-06-10T08:55:29;8.33;;;5.37;;
2850;SDS011;1433;49.976;8.342;2023-06-10T08:58:00;6.43;;;5.20;;
2850;SDS011;1433;49.976;8.342;2023-06-10T09:00:27;7.10;;;5.70;;
2850;SDS011;1433;49.976;8.342;2023-06-10T09:02:58;5.90;;;5.40;;
2850;SDS011;1433;49.976;8.342;2023-06-10T09:05:26;6.97;;;6.37;;
2850;SDS011;1433;49.976;8.342;2023-06-10T09:07:53;5.27;;;4.87;;
2850;SDS011;1433;49.976;8.342;2023-06-10T09:10:21;6.77;;;6.10;;
2850;SDS011;1433;49.976;8.342;2023-06-10T09:12:48;6.17;;;5.33;;
2850;SDS011;1433;49.976;8.342;2023-06-10T09:15:14;5.60;;;5.20;;
2850;SDS011;1433;49.976;8.342;2023-06-10T09:17:42;5.67;;;5.00;;
2850;SDS011;1433;49.976;8.342;2023-06-10T09:20:10;5.20;;;4.70;;
2850;SDS011;1433;49.976;8.342;2023-06-10T09:22:36;5.33;;;4.90;;
2850;SDS011;1433;49.976;8.342;2023-06-10T09:25:06;5.73;;;5.23;;
2850;SDS011;1433;49.976;8.342;2023-06-10T09:27:46;6.80;;;6.20;;
2850;SDS011;1433;49.976;8.342;2023-06-10T09:30:31;6.67;;;5.70;;
2850;SDS011;1433;49.976;8.342;2023-06-10T09:33:00;9.40;;;5.20;;
2850;SDS011;1433;49.976;8.342;2023-06-10T09:35:28;6.20;;;5.60;;
2850;SDS011;1433;49.976;8.342;2023-06-10T09:37:56;6.50;;;5.80;;
2850;SDS011;1433;49.976;8.342;2023-06-10T09:40:24;6.40;;;5.90;;
2850;SDS011;1433;49.976;8.342;2023-06-10T09:42:55;5.27;;;4.77;;
2850;SDS011;1433;49.976;8.342;2023-06-10T09:45:31;7.50;;;5.60;;
2850;SDS011;1433;49.976;8.342;2023-06-10T09:47:58;5.97;;;5.37;;
2850;SDS011;1433;49.976;8.342;2023-06-10T09:50:24;5.17;;;4.77;;
2850;SDS011;1433;49.976;8.342;2023-06-10T09:52:51;6.60;;;6.00;;
2850;SDS011;1433;49.976;8.342;2023-06-10T09:55:18;6.40;;;5.60;;
2850;SDS011;1433;49.976;8.342;2023-06-10T09:57:44;7.40;;;4.70;;
2850;SDS011;1433;49.976;8.342;2023-06-10T10:00:14;5.57;;;5.07;;
2850;SDS011;1433;49.976;8.342;2023-06-10T10:02:50;5.90;;;5.30;;
2850;SDS011;1433;49.976;8.342;2023-06-10T10:05:18;4.80;;;4.50;;
2850;SDS011;1433;49.976;8.342;2023-06-10T10:07:45;5.33;;;4.93;;
2850;SDS011;1433;49.976;8.342;2023-06-10T10:10:12;4.90;;;4.37;;
2850;SDS011;1433;49.976;8.342;2023-06-10T10:12:39;5.07;;;4.70;;
2850;SDS011;1433;49.976;8.342;2023-06-10T10:15:10;5.87;;;5.17;;
2850;SDS011;1433;49.976;8.342;2023-06-10T10:17:37;5.30;;;4.90;;
2850;SDS011;1433;49.976;8.342;2023-06-10T10:20:29;4.40;;;4.00;;
2850;SDS011;1433;49.976;8.342;2023-06-10T10:22:55;4.93;;;4.40;;
2850;SDS011;1433;49.976;8.342;2023-06-10T10:25:28;4.63;;;4.30;;
2850;SDS011;1433;49.976;8.342;2023-06-10T10:28:02;4.87;;;4.47;;
2850;SDS011;1433;49.976;8.342;2023-06-10T10:30:41;4.93;;;4.63;;
2850;SDS011;1433;49.976;8.342;2023-06-10T10:33:16;4.57;;;4.17;;
2850;SDS011;1433;49.976;8.342;2023-06-10T10:35:55;5.87;;;5.40;;
2850;SDS011;1433;49.976;8.342;2023-06-10T10:38:23;5.10;;;4.60;;
2850;SDS011;1433;49.976;8.342;2023-06-10T10:40:50;4.60;;;4.30;;
2850;SDS011;1433;49.976;8.342;2023-06-10T10:43:17;5.10;;;4.70;;
2850;SDS011;1433;49.976;8.342;2023-06-10T10:45:57;5.30;;;4.80;;
2850;SDS011;1433;49.976;8.342;2023-06-10T10:48:33;6.93;;;6.40;;
2850;SDS011;1433;49.976;8.342;2023-06-10T10:51:02;5.10;;;4.70;;
2850;SDS011;1433;49.976;8.342;2023-06-10T10:53:29;5.93;;;4.70;;
2850;SDS011;1433;49.976;8.342;2023-06-10T10:56:09;5.77;;;5.27;;
2850;SDS011;1433;49.976;8.342;2023-06-10T10:58:39;8.87;;;5.57;;
2850;SDS011;1433;49.976;8.342;2023-06-10T11:01:12;6.37;;;5.77;;
2850;SDS011;1433;49.976;8.342;2023-06-10T11:03:43;16.77;;;6.93;;
2850;SDS011;1433;49.976;8.342;2023-06-10T11:06:17;6.10;;;5.60;;
2850;SDS011;1433;49.976;8.342;2023-06-10T11:11:26;4.90;;;4.60;;
2850;SDS011;1433;49.976;8.342;2023-06-10T11:14:04;7.60;;;5.10;;
2850;SDS011;1433;49.976;8.342;2023-06-10T11:16:27;5.17;;;4.30;;
2850;SDS011;1433;49.976;8.342;2023-06-10T11:18:54;4.93;;;4.53;;
2850;SDS011;1433;49.976;8.342;2023-06-10T11:21:22;5.77;;;5.37;;
2850;SDS011;1433;49.976;8.342;2023-06-10T11:23:49;6.27;;;5.67;;
2850;SDS011;1433;49.976;8.342;2023-06-10T11:26:20;5.43;;;4.93;;
2850;SDS011;1433;49.976;8.342;2023-06-10T11:34:00;5.30;;;4.90;;
2850;SDS011;1433;49.976;8.342;2023-06-10T11:36:32;4.83;;;4.43;;
2850;SDS011;1433;49.976;8.342;2023-06-10T11:39:01;5.00;;;4.60;;
2850;SDS011;1433;49.976;8.342;2023-06-10T11:41:29;5.90;;;4.70;;
2850;SDS011;1433;49.976;8.342;2023-06-10T11:43:57;8.17;;;3.97;;
2850;SDS011;1433;49.976;8.342;2023-06-10T11:46:29;5.13;;;4.67;;
2850;SDS011;1433;49.976;8.342;2023-06-10T11:48:57;3.97;;;3.67;;
2850;SDS011;1433;49.976;8.342;2023-06-10T11:51:25;6.10;;;5.63;;
2850;SDS011;1433;49.976;8.342;2023-06-10T11:53:53;5.03;;;4.63;;
2850;SDS011;1433;49.976;8.342;2023-06-10T11:56:27;4.70;;;4.30;;
2850;SDS011;1433;49.976;8.342;2023-06-10T11:59:09;5.60;;;5.20;;
2850;SDS011;1433;49.976;8.342;2023-06-10T12:01:42;5.77;;;5.27;;
2850;SDS011;1433;49.976;8.342;2023-06-10T12:04:11;4.73;;;4.43;;
2850;SDS011;1433;49.976;8.342;2023-06-10T12:09:17;4.97;;;4.57;;
2850;SDS011;1433;49.976;8.342;2023-06-10T12:11:45;4.17;;;3.83;;
2850;SDS011;1433;49.976;8.342;2023-06-10T12:14:15;4.10;;;3.80;;
2850;SDS011;1433;49.976;8.342;2023-06-10T12:16:47;3.80;;;3.50;;
2850;SDS011;1433;49.976;8.342;2023-06-10T12:19:15;4.23;;;3.93;;
2850;SDS011;1433;49.976;8.342;2023-06-10T12:21:41;4.17;;;3.87;;
2850;SDS011;1433;49.976;8.342;2023-06-10T12:24:08;4.23;;;3.93;;
2850;SDS011;1433;49.976;8.342;2023-06-10T12:26:37;4.00;;;3.60;;
2850;SDS011;1433;49.976;8.342;2023-06-10T12:29:18;4.50;;;4.20;;
2850;SDS011;1433;49.976;8.342;2023-06-10T12:34:31;3.90;;;3.60;;
2850;SDS011;1433;49.976;8.342;2023-06-10T12:36:57;3.97;;;3.67;;
2850;SDS011;1433;49.976;8.342;2023-06-10T12:39:23;4.53;;;4.13;;
2850;SDS011;1433;49.976;8.342;2023-06-10T12:41:51;4.30;;;3.90;;
2850;SDS011;1433;49.976;8.342;2023-06-10T12:44:18;4.23;;;3.93;;
2850;SDS011;1433;49.976;8.342;2023-06-10T12:46:44;3.77;;;3.53;;
2850;SDS011;1433;49.976;8.342;2023-06-10T12:49:19;3.50;;;3.30;;
2850;SDS011;1433;49.976;8.342;2023-06-10T12:51:46;4.37;;;3.97;;
2850;SDS011;1433;49.976;8.342;2023-06-10T12:54:13;4.83;;;4.43;;
2850;SDS011;1433;49.976;8.342;2023-06-10T12:56:41;4.67;;;4.27;;
2850;SDS011;1433;49.976;8.342;2023-06-10T12:59:10;4.47;;;4.03;;
2850;SDS011;1433;49.976;8.342;2023-06-10T13:01:37;4.23;;;3.93;;
2850;SDS011;1433;49.976;8.342;2023-06-10T13:04:05;4.87;;;4.30;;
2850;SDS011;1433;49.976;8.342;2023-06-10T13:06:33;3.63;;;3.33;;
2850;SDS011;1433;49.976;8.342;2023-06-10T13:09:00;5.00;;;4.60;;
2850;SDS011;1433;49.976;8.342;2023-06-10T13:11:27;3.30;;;3.03;;
2850;SDS011;1433;49.976;8.342;2023-06-10T13:13:53;4.00;;;3.70;;
2850;SDS011;1433;49.976;8.342;2023-06-10T13:16:19;4.23;;;3.80;;
2850;SDS011;1433;49.976;8.342;2023-06-10T13:18:45;3.43;;;3.23;;
2850;SDS011;1433;49.976;8.342;2023-06-10T13:21:11;4.97;;;4.30;;
2850;SDS011;1433;49.976;8.342;2023-06-10T13:23:38;4.17;;;3.80;;
2850;SDS011;1433;49.976;8.342;2023-06-10T13:26:04;4.47;;;4.03;;
2850;SDS011;1433;49.976;8.342;2023-06-10T13:28:30;4.67;;;4.27;;
2850;SDS011;1433;49.976;8.342;2023-06-10T13:30:57;4.57;;;4.17;;
2850;SDS011;1433;49.976;8.342;2023-06-10T13:33:23;5.30;;;4.87;;
2850;SDS011;1433;49.976;8.342;2023-06-10T13:35:49;4.77;;;4.27;;
2850;SDS011;1433;49.976;8.342;2023-06-10T13:38:15;4.50;;;4.20;;
2850;SDS011;1433;49.976;8.342;2023-06-10T13:40:41;4.63;;;4.20;;
2850;SDS011;1433;49.976;8.342;2023-06-10T13:43:08;3.77;;;3.47;;
2850;SDS011;1433;49.976;8.342;2023-06-10T13:45:35;5.00;;;4.60;;
2850;SDS011;1433;49.976;8.342;2023-06-10T13:48:01;4.33;;;4.00;;
2850;SDS011;1433;49.976;8.342;2023-06-10T13:50:29;4.17;;;3.87;;
2850;SDS011;1433;49.976;8.342;2023-06-10T13:52:56;5.60;;;3.90;;
2850;SDS011;1433;49.976;8.342;2023-06-10T13:55:22;4.80;;;4.20;;
2850;SDS011;1433;49.976;8.342;2023-06-10T13:57:50;4.57;;;4.27;;
2850;SDS011;1433;49.976;8.342;2023-06-10T14:00:17;4.57;;;4.17;;
2850;SDS011;1433;49.976;8.342;2023-06-10T14:02:43;3.90;;;3.60;;
2850;SDS011;1433;49.976;8.342;2023-06-10T14:05:10;4.20;;;3.90;;
2850;SDS011;1433;49.976;8.342;2023-06-10T14:07:36;4.50;;;4.20;;
2850;SDS011;1433;49.976;8.342;2023-06-10T14:10:03;4.28;;;3.98;;
2850;SDS011;1433;49.976;8.342;2023-06-10T14:12:29;4.70;;;4.40;;
2850;SDS011;1433;49.976;8.342;2023-06-10T14:14:56;4.35;;;4.05;;
2850;SDS011;1433;49.976;8.342;2023-06-10T14:17:22;4.50;;;4.10;;
2850;SDS011;1433;49.976;8.342;2023-06-10T14:19:49;4.40;;;4.10;;
2850;SDS011;1433;49.976;8.342;2023-06-10T14:22:15;3.73;;;3.43;;
2850;SDS011;1433;49.976;8.342;2023-06-10T14:24:41;3.70;;;3.40;;
2850;SDS011;1433;49.976;8.342;2023-06-10T14:27:07;4.03;;;3.73;;
2850;SDS011;1433;49.976;8.342;2023-06-10T14:29:33;5.10;;;4.60;;
2850;SDS011;1433;49.976;8.342;2023-06-10T14:31:59;6.10;;;5.03;;
2850;SDS011;1433;49.976;8.342;2023-06-10T14:34:26;7.00;;;6.30;;
2850;SDS011;1433;49.976;8.342;2023-06-10T14:36:54;4.60;;;4.20;;
2850;SDS011;1433;49.976;8.342;2023-06-10T14:39:21;4.43;;;4.03;;
2850;SDS011;1433;49.976;8.342;2023-06-10T14:41:47;4.67;;;4.37;;
2850;SDS011;1433;49.976;8.342;2023-06-10T14:44:14;4.60;;;4.30;;
2850;SDS011;1433;49.976;8.342;2023-06-10T14:46:40;4.07;;;3.77;;
2850;SDS011;1433;49.976;8.342;2023-06-10T14:49:06;4.57;;;4.17;;
2850;SDS011;1433;49.976;8.342;2023-06-10T14:51:32;4.60;;;4.20;;
2850;SDS011;1433;49.976;8.342;2023-06-10T14:53:58;4.53;;;4.13;;
2850;SDS011;1433;49.976;8.342;2023-06-10T14:56:24;4.50;;;4.20;;
2850;SDS011;1433;49.976;8.342;2023-06-10T14:58:51;4.63;;;4.23;;
2850;SDS011;1433;49.976;8.342;2023-06-10T15:01:17;7.00;;;4.47;;
2850;SDS011;1433;49.976;8.342;2023-06-10T15:03:44;4.90;;;4.53;;
2850;SDS011;1433;49.976;8.342;2023-06-10T15:06:10;4.23;;;3.93;;
2850;SDS011;1433;49.976;8.342;2023-06-10T15:08:36;4.63;;;4.00;;
2850;SDS011;1433;49.976;8.342;2023-06-10T15:11:03;4.47;;;4.17;;
2850;SDS011;1433;49.976;8.342;2023-06-10T15:13:29;4.33;;;4.03;;
2850;SDS011;1433;49.976;8.342;2023-06-10T15:15:55;4.60;;;4.20;;
2850;SDS011;1433;49.976;8.342;2023-06-10T15:18:21;3.10;;;2.90;;
2850;SDS011;1433;49.976;8.342;2023-06-10T15:20:47;3.77;;;3.47;;
2850;SDS011;1433;49.976;8.342;2023-06-10T15:23:14;3.40;;;3.20;;
2850;SDS011;1433;49.976;8.342;2023-06-10T15:25:40;4.12;;;3.83;;
2850;SDS011;1433;49.976;8.342;2023-06-10T15:28:07;3.90;;;3.60;;
2850;SDS011;1433;49.976;8.342;2023-06-10T15:30:34;3.65;;;3.35;;
2850;SDS011;1433;49.976;8.342;2023-06-10T15:33:00;4.27;;;3.97;;
2850;SDS011;1433;49.976;8.342;2023-06-10T15:35:26;4.07;;;3.77;;
2850;SDS011;1433;49.976;8.342;2023-06-10T15:37:54;6.60;;;4.20;;